sensor_id;sensor_type;location;lat;lon;timestamp;temperature;humidity
46816;DHT22;32787;53.316;8.670;2022-11-23T00:01:36;5.00;89.30
46816;DHT22;32787;53.316;8.670;2022-11-23T00:04:05;5.10;89.00
46816;DHT22;32787;53.316;8.670;2022-11-23T00:06:31;5.30;88.70
46816;DHT22;32787;53.316;8.670;2022-11-23T00:08:57;5.40;88.50
46816;DHT22;32787;53.316;8.670;2022-11-23T00:11:24;5.30;88.50
46816;DHT22;32787;53.316;8.670;2022-11-23T00:13:51;5.30;88.60
46816;DHT22;32787;53.316;8.670;2022-11-23T00:16:22;5.20;89.00
46816;DHT22;32787;53.316;8.670;2022-11-23T00:18:51;5.40;89.10
46816;DHT22;32787;53.316;8.670;2022-11-23T00:21:18;5.40;88.90
46816;DHT22;32787;53.316;8.670;2022-11-23T00:23:44;5.40;88.90
46816;DHT22;32787;53.316;8.670;2022-11-23T00:26:11;5.40;89.10
46816;DHT22;32787;53.316;8.670;2022-11-23T00:28:36;5.40;89.30
46816;DHT22;32787;53.316;8.670;2022-11-23T00:31:06;5.40;89.50
46816;DHT22;32787;53.316;8.670;2022-11-23T00:33:32;5.40;89.60
46816;DHT22;32787;53.316;8.670;2022-11-23T00:36:03;5.20;90.00
46816;DHT22;32787;53.316;8.670;2022-11-23T00:38:29;5.20;90.40
46816;DHT22;32787;53.316;8.670;2022-11-23T00:41:03;5.20;90.40
46816;DHT22;32787;53.316;8.670;2022-11-23T00:43:30;5.20;90.50
46816;DHT22;32787;53.316;8.670;2022-11-23T00:48:38;5.30;90.40
46816;DHT22;32787;53.316;8.670;2022-11-23T00:51:06;5.40;90.40
46816;DHT22;32787;53.316;8.670;2022-11-23T00:53:32;5.40;90.30
46816;DHT22;32787;53.316;8.670;2022-11-23T00:55:58;5.40;90.60
46816;DHT22;32787;53.316;8.670;2022-11-23T00:58:24;5.40;90.60
46816;DHT22;32787;53.316;8.670;2022-11-23T01:00:50;5.40;90.80
46816;DHT22;32787;53.316;8.670;2022-11-23T01:03:15;5.40;91.00
46816;DHT22;32787;53.316;8.670;2022-11-23T01:05:41;5.40;91.00
46816;DHT22;32787;53.316;8.670;2022-11-23T01:08:07;5.50;91.20
46816;DHT22;32787;53.316;8.670;2022-11-23T01:10:33;5.50;91.20
46816;DHT22;32787;53.316;8.670;2022-11-23T01:12:59;5.40;91.30
46816;DHT22;32787;53.316;8.670;2022-11-23T01:15:25;5.40;91.70
46816;DHT22;32787;53.316;8.670;2022-11-23T01:17:51;5.40;91.80
46816;DHT22;32787;53.316;8.670;2022-11-23T01:20:17;5.40;91.70
46816;DHT22;32787;53.316;8.670;2022-11-23T01:22:43;5.40;91.80
46816;DHT22;32787;53.316;8.670;2022-11-23T01:25:08;5.40;91.80
46816;DHT22;32787;53.316;8.670;2022-11-23T01:27:34;5.50;91.90
46816;DHT22;32787;53.316;8.670;2022-11-23T01:29:59;5.60;91.70
46816;DHT22;32787;53.316;8.670;2022-11-23T01:32:25;5.50;91.70
46816;DHT22;32787;53.316;8.670;2022-11-23T01:34:51;5.50;91.80
46816;DHT22;32787;53.316;8.670;2022-11-23T01:37:16;5.70;91.70
46816;DHT22;32787;53.316;8.670;2022-11-23T01:39:42;5.60;91.60
46816;DHT22;32787;53.316;8.670;2022-11-23T01:42:08;5.70;91.60
46816;DHT22;32787;53.316;8.670;2022-11-23T01:44:35;5.80;91.30
46816;DHT22;32787;53.316;8.670;2022-11-23T01:47:05;5.60;91.50
46816;DHT22;32787;53.316;8.670;2022-11-23T01:49:43;5.60;91.80
46816;DHT22;32787;53.316;8.670;2022-11-23T01:52:21;5.60;92.10
46816;DHT22;32787;53.316;8.670;2022-11-23T01:54:50;5.60;92.20
46816;DHT22;32787;53.316;8.670;2022-11-23T01:57:28;5.60;92.20
46816;DHT22;32787;53.316;8.670;2022-11-23T01:59:56;5.60;92.30
46816;DHT22;32787;53.316;8.670;2022-11-23T02:02:22;5.60;92.30
46816;DHT22;32787;53.316;8.670;2022-11-23T02:04:48;5.70;92.20
46816;DHT22;32787;53.316;8.670;2022-11-23T02:07:17;5.60;92.10
46816;DHT22;32787;53.316;8.670;2022-11-23T02:09:44;5.60;92.20
46816;DHT22;32787;53.316;8.670;2022-11-23T02:12:11;5.80;92.10
46816;DHT22;32787;53.316;8.670;2022-11-23T02:14:37;5.70;92.10
46816;DHT22;32787;53.316;8.670;2022-11-23T02:17:03;5.60;92.00
46816;DHT22;32787;53.316;8.670;2022-11-23T02:28:37;5.60;92.10
46816;DHT22;32787;53.316;8.670;2022-11-23T02:31:04;5.70;92.10
46816;DHT22;32787;53.316;8.670;2022-11-23T02:33:30;5.70;92.10
46816;DHT22;32787;53.316;8.670;2022-11-23T02:35:58;5.70;92.00
46816;DHT22;32787;53.316;8.670;2022-11-23T02:38:27;5.80;91.90
46816;DHT22;32787;53.316;8.670;2022-11-23T02:40:54;5.80;91.80
46816;DHT22;32787;53.316;8.670;2022-11-23T02:43:20;5.80;91.90
46816;DHT22;32787;53.316;8.670;2022-11-23T02:45:49;5.80;92.00
46816;DHT22;32787;53.316;8.670;2022-11-23T02:48:16;5.90;92.10
46816;DHT22;32787;53.316;8.670;2022-11-23T02:50:43;6.00;91.90
46816;DHT22;32787;53.316;8.670;2022-11-23T02:53:09;6.00;91.90
46816;DHT22;32787;53.316;8.670;2022-11-23T02:55:34;5.90;92.00
46816;DHT22;32787;53.316;8.670;2022-11-23T02:58:00;5.90;92.20
46816;DHT22;32787;53.316;8.670;2022-11-23T03:00:26;5.90;92.30
46816;DHT22;32787;53.316;8.670;2022-11-23T03:02:52;5.80;92.40
46816;DHT22;32787;53.316;8.670;2022-11-23T03:05:17;5.80;92.60
46816;DHT22;32787;53.316;8.670;2022-11-23T03:07:43;5.80;92.60
46816;DHT22;32787;53.316;8.670;2022-11-23T03:10:09;5.90;92.50
46816;DHT22;32787;53.316;8.670;2022-11-23T03:12:34;5.90;92.40
46816;DHT22;32787;53.316;8.670;2022-11-23T03:15:00;6.00;92.40
46816;DHT22;32787;53.316;8.670;2022-11-23T03:17:26;5.90;92.30
46816;DHT22;32787;53.316;8.670;2022-11-23T03:19:52;5.90;92.30
46816;DHT22;32787;53.316;8.670;2022-11-23T03:22:18;6.00;92.30
46816;DHT22;32787;53.316;8.670;2022-11-23T03:24:44;6.00;92.30
46816;DHT22;32787;53.316;8.670;2022-11-23T03:27:10;6.10;92.20
46816;DHT22;32787;53.316;8.670;2022-11-23T03:29:36;6.10;92.20
46816;DHT22;32787;53.316;8.670;2022-11-23T03:32:01;6.20;92.10
46816;DHT22;32787;53.316;8.670;2022-11-23T03:34:27;6.10;92.40
46816;DHT22;32787;53.316;8.670;2022-11-23T03:36:53;6.10;92.60
46816;DHT22;32787;53.316;8.670;2022-11-23T03:39:18;6.20;92.60
46816;DHT22;32787;53.316;8.670;2022-11-23T03:41:44;6.10;92.60
46816;DHT22;32787;53.316;8.670;2022-11-23T03:44:10;6.20;92.60
46816;DHT22;32787;53.316;8.670;2022-11-23T03:46:35;6.20;92.40
46816;DHT22;32787;53.316;8.670;2022-11-23T03:49:01;6.30;92.40
46816;DHT22;32787;53.316;8.670;2022-11-23T03:51:26;6.30;92.10
46816;DHT22;32787;53.316;8.670;2022-11-23T03:53:52;6.30;92.00
46816;DHT22;32787;53.316;8.670;2022-11-23T03:56:18;6.30;92.20
46816;DHT22;32787;53.316;8.670;2022-11-23T03:58:44;6.30;92.00
46816;DHT22;32787;53.316;8.670;2022-11-23T04:01:10;6.30;92.00
46816;DHT22;32787;53.316;8.670;2022-11-23T04:03:35;6.30;92.00
46816;DHT22;32787;53.316;8.670;2022-11-23T04:06:01;6.20;92.10
46816;DHT22;32787;53.316;8.670;2022-11-23T04:08:26;6.30;92.30
46816;DHT22;32787;53.316;8.670;2022-11-23T04:10:56;6.30;92.30
46816;DHT22;32787;53.316;8.670;2022-11-23T04:13:22;6.30;92.30
46816;DHT22;32787;53.316;8.670;2022-11-23T04:15:48;6.30;92.40
46816;DHT22;32787;53.316;8.670;2022-11-23T04:18:13;6.30;92.50
46816;DHT22;32787;53.316;8.670;2022-11-23T04:20:39;6.30;92.70
46816;DHT22;32787;53.316;8.670;2022-11-23T04:23:05;6.30;92.80
46816;DHT22;32787;53.316;8.670;2022-11-23T04:25:30;6.40;92.60
46816;DHT22;32787;53.316;8.670;2022-11-23T04:27:56;6.30;92.70
46816;DHT22;32787;53.316;8.670;2022-11-23T04:30:22;6.40;92.80
46816;DHT22;32787;53.316;8.670;2022-11-23T04:32:47;6.30;92.90
46816;DHT22;32787;53.316;8.670;2022-11-23T04:35:13;6.30;92.90
46816;DHT22;32787;53.316;8.670;2022-11-23T04:37:39;6.30;93.00
46816;DHT22;32787;53.316;8.670;2022-11-23T04:40:05;6.40;93.00
46816;DHT22;32787;53.316;8.670;2022-11-23T04:42:31;6.40;93.10
46816;DHT22;32787;53.316;8.670;2022-11-23T04:44:56;6.30;93.30
46816;DHT22;32787;53.316;8.670;2022-11-23T04:47:25;6.30;93.40
46816;DHT22;32787;53.316;8.670;2022-11-23T04:49:51;6.30;93.50
46816;DHT22;32787;53.316;8.670;2022-11-23T04:52:16;6.40;93.60
46816;DHT22;32787;53.316;8.670;2022-11-23T04:54:42;6.40;93.50
46816;DHT22;32787;53.316;8.670;2022-11-23T04:57:08;6.30;93.50
46816;DHT22;32787;53.316;8.670;2022-11-23T04:59:34;6.30;93.70
46816;DHT22;32787;53.316;8.670;2022-11-23T05:02:00;6.40;93.80
46816;DHT22;32787;53.316;8.670;2022-11-23T05:04:26;6.40;93.80
46816;DHT22;32787;53.316;8.670;2022-11-23T05:06:51;6.40;93.80
46816;DHT22;32787;53.316;8.670;2022-11-23T05:09:17;6.40;93.80
46816;DHT22;32787;53.316;8.670;2022-11-23T05:11:43;6.40;93.80
46816;DHT22;32787;53.316;8.670;2022-11-23T05:14:09;6.40;93.90
46816;DHT22;32787;53.316;8.670;2022-11-23T05:16:34;6.40;93.90
46816;DHT22;32787;53.316;8.670;2022-11-23T05:19:00;6.50;94.00
46816;DHT22;32787;53.316;8.670;2022-11-23T05:21:26;6.40;93.90
46816;DHT22;32787;53.316;8.670;2022-11-23T05:23:52;6.50;93.90
46816;DHT22;32787;53.316;8.670;2022-11-23T05:26:17;6.40;93.90
46816;DHT22;32787;53.316;8.670;2022-11-23T05:28:43;6.40;94.00
46816;DHT22;32787;53.316;8.670;2022-11-23T05:31:09;6.50;94.10
46816;DHT22;32787;53.316;8.670;2022-11-23T05:33:35;6.50;94.00
46816;DHT22;32787;53.316;8.670;2022-11-23T05:36:00;6.40;94.00
46816;DHT22;32787;53.316;8.670;2022-11-23T05:38:26;6.50;94.20
46816;DHT22;32787;53.316;8.670;2022-11-23T05:40:52;6.50;94.10
46816;DHT22;32787;53.316;8.670;2022-11-23T05:43:17;6.40;94.10
46816;DHT22;32787;53.316;8.670;2022-11-23T05:45:43;6.50;94.10
46816;DHT22;32787;53.316;8.670;2022-11-23T05:48:09;6.40;94.10
46816;DHT22;32787;53.316;8.670;2022-11-23T05:50:35;6.50;94.20
46816;DHT22;32787;53.316;8.670;2022-11-23T05:53:00;6.50;94.00
46816;DHT22;32787;53.316;8.670;2022-11-23T05:55:26;6.40;94.20
46816;DHT22;32787;53.316;8.670;2022-11-23T05:57:52;6.40;94.20
46816;DHT22;32787;53.316;8.670;2022-11-23T06:00:18;6.50;94.30
46816;DHT22;32787;53.316;8.670;2022-11-23T06:02:44;6.50;94.30
46816;DHT22;32787;53.316;8.670;2022-11-23T06:05:10;6.50;94.30
46816;DHT22;32787;53.316;8.670;2022-11-23T06:07:35;6.40;94.30
46816;DHT22;32787;53.316;8.670;2022-11-23T06:10:02;6.40;94.30
46816;DHT22;32787;53.316;8.670;2022-11-23T06:12:29;6.50;94.40
46816;DHT22;32787;53.316;8.670;2022-11-23T06:14:55;6.60;94.30
46816;DHT22;32787;53.316;8.670;2022-11-23T06:17:21;6.60;94.40
46816;DHT22;32787;53.316;8.670;2022-11-23T06:19:46;6.60;94.30
46816;DHT22;32787;53.316;8.670;2022-11-23T06:22:13;6.60;94.30
46816;DHT22;32787;53.316;8.670;2022-11-23T06:24:40;6.60;94.30
46816;DHT22;32787;53.316;8.670;2022-11-23T06:27:06;6.60;94.20
46816;DHT22;32787;53.316;8.670;2022-11-23T06:29:31;6.70;94.30
46816;DHT22;32787;53.316;8.670;2022-11-23T06:31:57;6.60;94.20
46816;DHT22;32787;53.316;8.670;2022-11-23T06:34:23;6.70;94.20
46816;DHT22;32787;53.316;8.670;2022-11-23T06:36:48;6.70;94.20
46816;DHT22;32787;53.316;8.670;2022-11-23T06:39:14;6.80;94.30
46816;DHT22;32787;53.316;8.670;2022-11-23T06:41:39;6.80;94.20
46816;DHT22;32787;53.316;8.670;2022-11-23T06:44:05;6.90;94.10
46816;DHT22;32787;53.316;8.670;2022-11-23T06:46:31;6.80;94.10
46816;DHT22;32787;53.316;8.670;2022-11-23T06:48:57;6.80;94.00
46816;DHT22;32787;53.316;8.670;2022-11-23T06:51:22;6.90;94.10
46816;DHT22;32787;53.316;8.670;2022-11-23T06:53:48;6.80;94.10
46816;DHT22;32787;53.316;8.670;2022-11-23T06:56:14;6.80;94.00
46816;DHT22;32787;53.316;8.670;2022-11-23T06:58:39;6.90;94.00
46816;DHT22;32787;53.316;8.670;2022-11-23T07:01:07;6.90;93.90
46816;DHT22;32787;53.316;8.670;2022-11-23T07:03:33;6.80;93.90
46816;DHT22;32787;53.316;8.670;2022-11-23T07:05:58;6.80;94.00
46816;DHT22;32787;53.316;8.670;2022-11-23T07:08:24;6.80;94.00
46816;DHT22;32787;53.316;8.670;2022-11-23T07:10:50;6.70;94.00
46816;DHT22;32787;53.316;8.670;2022-11-23T07:13:15;6.70;94.10
46816;DHT22;32787;53.316;8.670;2022-11-23T07:15:41;6.70;94.10
46816;DHT22;32787;53.316;8.670;2022-11-23T07:18:08;6.80;94.10
46816;DHT22;32787;53.316;8.670;2022-11-23T07:20:35;6.80;94.20
46816;DHT22;32787;53.316;8.670;2022-11-23T07:23:01;6.80;94.20
46816;DHT22;32787;53.316;8.670;2022-11-23T07:25:28;6.80;94.20
46816;DHT22;32787;53.316;8.670;2022-11-23T07:27:58;6.80;94.20
46816;DHT22;32787;53.316;8.670;2022-11-23T07:30:25;6.90;94.30
46816;DHT22;32787;53.316;8.670;2022-11-23T07:32:51;6.80;94.10
46816;DHT22;32787;53.316;8.670;2022-11-23T07:35:18;6.80;94.10
46816;DHT22;32787;53.316;8.670;2022-11-23T07:37:44;6.80;94.10
46816;DHT22;32787;53.316;8.670;2022-11-23T07:40:10;6.80;94.10
46816;DHT22;32787;53.316;8.670;2022-11-23T07:42:36;6.90;94.20
46816;DHT22;32787;53.316;8.670;2022-11-23T07:45:06;6.80;94.20
46816;DHT22;32787;53.316;8.670;2022-11-23T07:47:32;6.90;94.10
46816;DHT22;32787;53.316;8.670;2022-11-23T07:49:57;6.90;94.10
46816;DHT22;32787;53.316;8.670;2022-11-23T07:52:23;7.00;94.00
46816;DHT22;32787;53.316;8.670;2022-11-23T07:54:49;7.00;93.90
46816;DHT22;32787;53.316;8.670;2022-11-23T07:57:14;6.90;93.80
46816;DHT22;32787;53.316;8.670;2022-11-23T07:59:40;6.90;93.70
46816;DHT22;32787;53.316;8.670;2022-11-23T08:02:08;6.90;93.60
46816;DHT22;32787;53.316;8.670;2022-11-23T08:04:34;6.90;93.50
46816;DHT22;32787;53.316;8.670;2022-11-23T08:06:59;6.80;93.40
46816;DHT22;32787;53.316;8.670;2022-11-23T08:09:27;6.80;93.30
46816;DHT22;32787;53.316;8.670;2022-11-23T08:11:52;6.70;93.40
46816;DHT22;32787;53.316;8.670;2022-11-23T08:14:18;6.80;93.70
46816;DHT22;32787;53.316;8.670;2022-11-23T08:16:46;6.80;93.60
46816;DHT22;32787;53.316;8.670;2022-11-23T08:19:12;6.90;93.70
46816;DHT22;32787;53.316;8.670;2022-11-23T08:21:37;6.90;93.60
46816;DHT22;32787;53.316;8.670;2022-11-23T08:24:03;7.00;93.70
46816;DHT22;32787;53.316;8.670;2022-11-23T08:26:29;7.00;93.40
46816;DHT22;32787;53.316;8.670;2022-11-23T08:28:55;7.00;93.40
46816;DHT22;32787;53.316;8.670;2022-11-23T08:31:21;7.10;93.30
46816;DHT22;32787;53.316;8.670;2022-11-23T08:33:47;7.00;93.30
46816;DHT22;32787;53.316;8.670;2022-11-23T08:36:13;7.00;93.30
46816;DHT22;32787;53.316;8.670;2022-11-23T08:38:38;7.00;93.40
46816;DHT22;32787;53.316;8.670;2022-11-23T08:41:04;7.10;93.40
46816;DHT22;32787;53.316;8.670;2022-11-23T08:43:30;7.10;93.20
46816;DHT22;32787;53.316;8.670;2022-11-23T08:45:59;7.20;93.20
46816;DHT22;32787;53.316;8.670;2022-11-23T08:48:25;7.20;93.00
46816;DHT22;32787;53.316;8.670;2022-11-23T08:50:52;7.30;92.80
46816;DHT22;32787;53.316;8.670;2022-11-23T08:53:18;7.40;92.50
46816;DHT22;32787;53.316;8.670;2022-11-23T08:55:43;7.40;92.40
46816;DHT22;32787;53.316;8.670;2022-11-23T08:58:09;7.40;92.30
46816;DHT22;32787;53.316;8.670;2022-11-23T09:00:36;7.40;92.40
46816;DHT22;32787;53.316;8.670;2022-11-23T09:03:02;7.40;92.30
46816;DHT22;32787;53.316;8.670;2022-11-23T09:05:28;7.50;92.40
46816;DHT22;32787;53.316;8.670;2022-11-23T09:08:03;7.40;92.20
46816;DHT22;32787;53.316;8.670;2022-11-23T09:10:28;7.40;92.30
46816;DHT22;32787;53.316;8.670;2022-11-23T09:12:54;7.50;92.30
46816;DHT22;32787;53.316;8.670;2022-11-23T09:15:20;7.60;92.10
46816;DHT22;32787;53.316;8.670;2022-11-23T09:17:45;7.60;91.80
46816;DHT22;32787;53.316;8.670;2022-11-23T09:20:11;7.60;91.70
46816;DHT22;32787;53.316;8.670;2022-11-23T09:22:37;7.60;91.60
46816;DHT22;32787;53.316;8.670;2022-11-23T09:25:04;7.60;91.60
46816;DHT22;32787;53.316;8.670;2022-11-23T09:27:31;7.60;91.70
46816;DHT22;32787;53.316;8.670;2022-11-23T09:29:57;7.60;91.60
46816;DHT22;32787;53.316;8.670;2022-11-23T09:32:22;7.60;91.70
46816;DHT22;32787;53.316;8.670;2022-11-23T09:34:48;7.80;91.40
46816;DHT22;32787;53.316;8.670;2022-11-23T09:37:13;7.60;91.20
46816;DHT22;32787;53.316;8.670;2022-11-23T09:39:39;7.60;91.70
46816;DHT22;32787;53.316;8.670;2022-11-23T09:42:38;7.50;91.60
46816;DHT22;32787;53.316;8.670;2022-11-23T09:47:43;7.50;91.70
46816;DHT22;32787;53.316;8.670;2022-11-23T09:50:32;7.60;91.90
46816;DHT22;32787;53.316;8.670;2022-11-23T09:53:04;7.70;91.50
46816;DHT22;32787;53.316;8.670;2022-11-23T09:55:46;7.90;91.20
46816;DHT22;32787;53.316;8.670;2022-11-23T09:58:18;7.80;91.20
46816;DHT22;32787;53.316;8.670;2022-11-23T10:01:03;7.80;90.90
46816;DHT22;32787;53.316;8.670;2022-11-23T10:03:38;7.90;90.90
46816;DHT22;32787;53.316;8.670;2022-11-23T10:06:26;8.00;90.60
46816;DHT22;32787;53.316;8.670;2022-11-23T10:23:43;8.40;89.70
46816;DHT22;32787;53.316;8.670;2022-11-23T10:26:16;8.40;89.80
46816;DHT22;32787;53.316;8.670;2022-11-23T10:28:44;8.50;89.70
46816;DHT22;32787;53.316;8.670;2022-11-23T10:31:21;8.50;89.40
46816;DHT22;32787;53.316;8.670;2022-11-23T10:34:10;8.50;89.50
46816;DHT22;32787;53.316;8.670;2022-11-23T10:36:38;8.70;89.30
46816;DHT22;32787;53.316;8.670;2022-11-23T10:39:19;8.80;89.00
46816;DHT22;32787;53.316;8.670;2022-11-23T10:41:45;8.70;88.90
46816;DHT22;32787;53.316;8.670;2022-11-23T10:46:51;8.70;88.60
46816;DHT22;32787;53.316;8.670;2022-11-23T10:49:23;8.80;88.50
46816;DHT22;32787;53.316;8.670;2022-11-23T10:54:29;8.80;88.20
46816;DHT22;32787;53.316;8.670;2022-11-23T10:56:58;8.90;87.70
46816;DHT22;32787;53.316;8.670;2022-11-23T11:04:25;8.90;88.10
46816;DHT22;32787;53.316;8.670;2022-11-23T11:06:50;9.10;88.30
46816;DHT22;32787;53.316;8.670;2022-11-23T11:09:19;9.10;87.90
46816;DHT22;32787;53.316;8.670;2022-11-23T11:11:46;9.20;87.80
46816;DHT22;32787;53.316;8.670;2022-11-23T11:16:52;9.10;87.50
46816;DHT22;32787;53.316;8.670;2022-11-23T11:19:34;9.10;87.60
46816;DHT22;32787;53.316;8.670;2022-11-23T11:22:03;9.20;87.40
46816;DHT22;32787;53.316;8.670;2022-11-23T11:24:48;9.20;87.30
46816;DHT22;32787;53.316;8.670;2022-11-23T11:27:20;9.20;87.00
46816;DHT22;32787;53.316;8.670;2022-11-23T11:29:49;9.20;87.00
46816;DHT22;32787;53.316;8.670;2022-11-23T11:32:20;9.40;87.30
46816;DHT22;32787;53.316;8.670;2022-11-23T11:35:00;9.40;86.50
46816;DHT22;32787;53.316;8.670;2022-11-23T11:37:44;9.20;86.60
46816;DHT22;32787;53.316;8.670;2022-11-23T11:40:24;9.30;87.20
46816;DHT22;32787;53.316;8.670;2022-11-23T11:43:07;9.40;86.60
46816;DHT22;32787;53.316;8.670;2022-11-23T11:45:42;9.50;86.60
46816;DHT22;32787;53.316;8.670;2022-11-23T11:48:21;9.50;86.00
46816;DHT22;32787;53.316;8.670;2022-11-23T11:51:04;9.50;86.50
46816;DHT22;32787;53.316;8.670;2022-11-23T11:53:38;9.60;86.10
46816;DHT22;32787;53.316;8.670;2022-11-23T11:56:23;9.50;85.90
46816;DHT22;32787;53.316;8.670;2022-11-23T11:58:55;9.60;85.70
46816;DHT22;32787;53.316;8.670;2022-11-23T12:04:36;9.50;86.30
46816;DHT22;32787;53.316;8.670;2022-11-23T12:07:06;9.60;85.90
46816;DHT22;32787;53.316;8.670;2022-11-23T12:09:37;9.60;85.70
46816;DHT22;32787;53.316;8.670;2022-11-23T12:12:07;9.70;85.30
46816;DHT22;32787;53.316;8.670;2022-11-23T12:14:36;9.60;85.40
46816;DHT22;32787;53.316;8.670;2022-11-23T12:22:59;9.50;86.10
46816;DHT22;32787;53.316;8.670;2022-11-23T12:25:37;9.60;85.60
46816;DHT22;32787;53.316;8.670;2022-11-23T12:28:24;9.60;85.30
46816;DHT22;32787;53.316;8.670;2022-11-23T12:34:13;9.50;86.20
46816;DHT22;32787;53.316;8.670;2022-11-23T12:37:09;9.40;86.10
46816;DHT22;32787;53.316;8.670;2022-11-23T12:40:42;9.40;86.30
46816;DHT22;32787;53.316;8.670;2022-11-23T12:42:48;9.40;86.30
46816;DHT22;32787;53.316;8.670;2022-11-23T12:48:32;9.60;85.50
46816;DHT22;32787;53.316;8.670;2022-11-23T12:51:16;9.60;85.60
46816;DHT22;32787;53.316;8.670;2022-11-23T12:54:17;9.50;86.30
46816;DHT22;32787;53.316;8.670;2022-11-23T12:56:58;9.50;86.20
46816;DHT22;32787;53.316;8.670;2022-11-23T12:59:38;9.50;85.90
46816;DHT22;32787;53.316;8.670;2022-11-23T13:02:23;9.40;86.20
46816;DHT22;32787;53.316;8.670;2022-11-23T13:04:59;9.70;85.90
46816;DHT22;32787;53.316;8.670;2022-11-23T13:08:01;9.70;85.10
46816;DHT22;32787;53.316;8.670;2022-11-23T13:19:52;9.70;85.10
46816;DHT22;32787;53.316;8.670;2022-11-23T13:22:23;9.80;84.90
46816;DHT22;32787;53.316;8.670;2022-11-23T13:25:18;9.70;84.70
46816;DHT22;32787;53.316;8.670;2022-11-23T13:32:55;9.80;84.90
46816;DHT22;32787;53.316;8.670;2022-11-23T13:40:23;9.90;83.70
46816;DHT22;32787;53.316;8.670;2022-11-23T13:42:50;9.80;83.60
46816;DHT22;32787;53.316;8.670;2022-11-23T13:50:32;9.50;83.90
46816;DHT22;32787;53.316;8.670;2022-11-23T13:52:59;9.50;83.90
46816;DHT22;32787;53.316;8.670;2022-11-23T13:55:34;9.50;83.70
46816;DHT22;32787;53.316;8.670;2022-11-23T14:00:52;9.50;83.70
46816;DHT22;32787;53.316;8.670;2022-11-23T14:08:44;9.30;84.20
46816;DHT22;32787;53.316;8.670;2022-11-23T14:11:13;9.20;84.70
46816;DHT22;32787;53.316;8.670;2022-11-23T14:13:50;9.30;84.20
46816;DHT22;32787;53.316;8.670;2022-11-23T14:16:32;9.30;84.10
46816;DHT22;32787;53.316;8.670;2022-11-23T14:19:23;9.20;83.90
46816;DHT22;32787;53.316;8.670;2022-11-23T14:25:03;9.20;83.80
46816;DHT22;32787;53.316;8.670;2022-11-23T14:41:21;9.20;83.70
46816;DHT22;32787;53.316;8.670;2022-11-23T14:43:48;9.10;83.70
46816;DHT22;32787;53.316;8.670;2022-11-23T14:46:19;9.00;84.10
46816;DHT22;32787;53.316;8.670;2022-11-23T14:48:46;8.80;84.20
46816;DHT22;32787;53.316;8.670;2022-11-23T14:53:43;8.80;84.70
46816;DHT22;32787;53.316;8.670;2022-11-23T14:58:58;8.60;85.00
46816;DHT22;32787;53.316;8.670;2022-11-23T15:01:26;8.40;85.60
46816;DHT22;32787;53.316;8.670;2022-11-23T15:04:07;8.30;85.80
46816;DHT22;32787;53.316;8.670;2022-11-23T15:06:33;8.20;86.00
46816;DHT22;32787;53.316;8.670;2022-11-23T15:09:12;8.20;86.20
46816;DHT22;32787;53.316;8.670;2022-11-23T15:11:40;7.90;86.40
46816;DHT22;32787;53.316;8.670;2022-11-23T15:14:29;7.80;86.90
46816;DHT22;32787;53.316;8.670;2022-11-23T15:16:55;7.70;86.70
46816;DHT22;32787;53.316;8.670;2022-11-23T15:19:25;7.50;87.40
46816;DHT22;32787;53.316;8.670;2022-11-23T15:21:51;7.50;87.60
46816;DHT22;32787;53.316;8.670;2022-11-23T15:24:23;7.50;87.20
46816;DHT22;32787;53.316;8.670;2022-11-23T15:26:49;7.40;87.60
46816;DHT22;32787;53.316;8.670;2022-11-23T15:29:57;7.20;87.80
46816;DHT22;32787;53.316;8.670;2022-11-23T15:34:50;7.00;87.60
46816;DHT22;32787;53.316;8.670;2022-11-23T15:37:17;6.80;87.90
46816;DHT22;32787;53.316;8.670;2022-11-23T15:39:43;6.60;88.20
46816;DHT22;32787;53.316;8.670;2022-11-23T15:42:21;6.70;88.60
46816;DHT22;32787;53.316;8.670;2022-11-23T15:44:48;6.60;88.70
46816;DHT22;32787;53.316;8.670;2022-11-23T15:47:18;6.60;89.20
46816;DHT22;32787;53.316;8.670;2022-11-23T15:49:45;6.90;89.00
46816;DHT22;32787;53.316;8.670;2022-11-23T15:52:14;6.80;88.60
46816;DHT22;32787;53.316;8.670;2022-11-23T15:54:41;6.80;88.80
46816;DHT22;32787;53.316;8.670;2022-11-23T15:57:20;6.60;88.50
46816;DHT22;32787;53.316;8.670;2022-11-23T15:59:52;6.60;88.90
46816;DHT22;32787;53.316;8.670;2022-11-23T16:02:23;6.50;88.70
46816;DHT22;32787;53.316;8.670;2022-11-23T16:07:55;6.30;89.40
46816;DHT22;32787;53.316;8.670;2022-11-23T16:10:29;6.40;90.20
46816;DHT22;32787;53.316;8.670;2022-11-23T16:13:00;6.40;89.80
46816;DHT22;32787;53.316;8.670;2022-11-23T16:20:47;6.30;89.60
46816;DHT22;32787;53.316;8.670;2022-11-23T16:23:18;6.20;89.80
46816;DHT22;32787;53.316;8.670;2022-11-23T16:25:56;6.30;90.10
46816;DHT22;32787;53.316;8.670;2022-11-23T16:28:29;6.40;89.80
46816;DHT22;32787;53.316;8.670;2022-11-23T16:30:55;6.20;89.80
46816;DHT22;32787;53.316;8.670;2022-11-23T16:33:22;6.20;89.90
46816;DHT22;32787;53.316;8.670;2022-11-23T16:35:48;6.40;90.00
46816;DHT22;32787;53.316;8.670;2022-11-23T16:38:14;6.40;89.70
46816;DHT22;32787;53.316;8.670;2022-11-23T16:40:43;6.40;89.30
46816;DHT22;32787;53.316;8.670;2022-11-23T16:43:10;6.50;89.50
46816;DHT22;32787;53.316;8.670;2022-11-23T16:45:41;6.60;89.60
46816;DHT22;32787;53.316;8.670;2022-11-23T16:50:50;6.60;88.70
46816;DHT22;32787;53.316;8.670;2022-11-23T16:53:17;6.50;88.80
46816;DHT22;32787;53.316;8.670;2022-11-23T16:55:54;6.40;88.90
46816;DHT22;32787;53.316;8.670;2022-11-23T16:58:20;6.40;89.30
46816;DHT22;32787;53.316;8.670;2022-11-23T17:00:46;6.30;89.10
46816;DHT22;32787;53.316;8.670;2022-11-23T17:03:14;6.20;89.40
46816;DHT22;32787;53.316;8.670;2022-11-23T17:05:40;6.00;89.30
46816;DHT22;32787;53.316;8.670;2022-11-23T17:08:06;6.00;89.60
46816;DHT22;32787;53.316;8.670;2022-11-23T17:10:32;6.20;89.60
46816;DHT22;32787;53.316;8.670;2022-11-23T17:12:58;6.20;89.50
46816;DHT22;32787;53.316;8.670;2022-11-23T17:15:23;6.30;89.20
46816;DHT22;32787;53.316;8.670;2022-11-23T17:17:49;6.40;88.90
46816;DHT22;32787;53.316;8.670;2022-11-23T17:20:17;6.40;88.70
46816;DHT22;32787;53.316;8.670;2022-11-23T17:22:43;6.50;87.90
46816;DHT22;32787;53.316;8.670;2022-11-23T17:25:11;6.50;87.40
46816;DHT22;32787;53.316;8.670;2022-11-23T17:27:39;6.40;87.70
46816;DHT22;32787;53.316;8.670;2022-11-23T17:30:11;6.10;88.10
46816;DHT22;32787;53.316;8.670;2022-11-23T17:32:37;6.00;88.10
46816;DHT22;32787;53.316;8.670;2022-11-23T17:35:03;5.90;88.60
46816;DHT22;32787;53.316;8.670;2022-11-23T17:37:29;5.80;88.10
46816;DHT22;32787;53.316;8.670;2022-11-23T17:39:56;5.70;88.50
46816;DHT22;32787;53.316;8.670;2022-11-23T17:42:21;5.90;88.40
46816;DHT22;32787;53.316;8.670;2022-11-23T17:44:47;5.80;88.10
46816;DHT22;32787;53.316;8.670;2022-11-23T17:47:26;5.80;88.70
46816;DHT22;32787;53.316;8.670;2022-11-23T17:49:54;5.90;88.30
46816;DHT22;32787;53.316;8.670;2022-11-23T17:52:20;5.80;88.20
46816;DHT22;32787;53.316;8.670;2022-11-23T17:54:46;5.70;88.30
46816;DHT22;32787;53.316;8.670;2022-11-23T17:57:21;5.60;87.90
46816;DHT22;32787;53.316;8.670;2022-11-23T17:59:47;5.60;88.30
46816;DHT22;32787;53.316;8.670;2022-11-23T18:02:13;5.60;88.70